logo
Rechercher aéroport 
image banner adimage banner adimage banner ad
image banner ad

KRIV - March Arb

Situé à Riverside, United States

ICAO - RIV, IATA -

Données fournies par Airmate  

Information générale

Coordonnées: N33°52'55" W117°15'32"
Élévation : 1536 feet MSL.
Variation magnétique : 14° East
Voir autres Aéroports à California

Données opérationnelles

Special qualification required
Heure actuelle UTC:
Heure actuelle locale:
Météo
METAR: KRIV 130456Z AUTO 31003KT 10SM CLR 22/18 A2995 RMK AO2 SLP130 T02220184
TAF: TAF KRIV 202000Z 2020/2202 32009KT 9999 FEW040 510003 520305 530809 QNH2988INS TEMPO 2021/2102 31012G18KT BECMG 2103/2104 31006KT 9999 FEW020 520509 QNH2994INS BECMG 2110/2111 16004KT 9999 SCT012 520509 QNH2994INS BECMG 2111/2112 15004KT 9999 BKN010 520509 QNH2995INS BECMG 2115/2116 15004KT 9999 SCT012 520509 QNH2993INS BECMG 2116/2117 32009KT 9999 SKC 520509 QNH2990INS TEMPO 2120/2202 32010G15KT TX30/2022Z TN14/2113Z
Voir NOTAMs / SUP AIP / TFR affectant cet aéroport [VIEW]
Fréquences de communication: [VIEW]

Pistes:

Identifiant RWYQFULongueur (ft)Largeur (ft)SurfaceLDA (ft)
12135°3061100ASPH
30315°3061100ASPH
14149°13302200CONC
32329°13302200CONC

Coordonnées de l'aéroport

Adresse: Riverside United States

Vue satellite de KRIV